Time;durP1;ratioP1;P1;durP2;ratioP2;P2;SDS_P1;SDS_P2;PMS_P1;PMS_P2;Temp;Humidity;BMP_temperature;BMP_pressure;BME280_temperature;BME280_humidity;BME280_pressure;Samples;Min_cycle;Max_cycle;Signal;HPM_P1;HPM_P2
2021/05/21 00:00:24;;;;;;;1.88;0.90;;;11.80;98.90;;;;;;5118513;28;20020;-72
2021/05/21 00:02:52;;;;;;;4.32;0.75;;;11.80;98.90;;;;;;5118660;28;20450;-72
2021/05/21 00:05:20;;;;;;;2.10;0.70;;;11.70;98.90;;;;;;5118620;28;20460;-72
2021/05/21 00:07:48;;;;;;;1.10;0.60;;;11.70;98.90;;;;;;5118958;28;20034;-72
2021/05/21 00:10:16;;;;;;;2.25;1.00;;;11.70;98.80;;;;;;5119798;28;20426;-72
2021/05/21 00:12:44;;;;;;;3.33;1.10;;;11.70;98.70;;;;;;5119419;28;20030;-72
2021/05/21 00:15:13;;;;;;;2.42;0.75;;;11.70;98.70;;;;;;5119609;28;20024;-72
2021/05/21 00:17:41;;;;;;;1.83;0.85;;;11.70;98.70;;;;;;5119161;28;20019;-72
2021/05/21 00:20:09;;;;;;;1.90;0.93;;;11.70;98.60;;;;;;5100887;28;20057;-72
2021/05/21 00:22:37;;;;;;;3.70;0.80;;;11.80;98.80;;;;;;5119262;28;20020;-72
2021/05/21 00:25:05;;;;;;;1.63;0.98;;;11.80;98.60;;;;;;5118949;28;20015;-72
2021/05/21 00:27:33;;;;;;;2.78;0.82;;;11.80;98.40;;;;;;5118309;28;20300;-72
2021/05/21 00:30:02;;;;;;;1.85;0.90;;;11.90;98.40;;;;;;5118542;28;20024;-72
2021/05/21 00:32:30;;;;;;;2.28;0.90;;;12.00;98.30;;;;;;5118107;28;20024;-72
2021/05/21 00:34:57;;;;;;;3.65;0.93;;;12.10;97.80;;;;;;5099993;28;20482;-72
2021/05/21 00:37:25;;;;;;;4.00;1.10;;;12.10;98.10;;;;;;5118111;28;20028;-72
2021/05/21 00:39:52;;;;;;;1.75;0.63;;;12.20;98.00;;;;;;5099693;28;20024;-72
2021/05/21 00:42:20;;;;;;;1.95;0.80;;;12.20;97.60;;;;;;5117685;28;20314;-72
2021/05/21 00:44:58;;;;;;;1.13;0.70;;;12.20;97.60;;;;;;5117659;28;20108;-72
2021/05/21 00:47:27;;;;;;;2.45;0.85;;;12.30;97.80;;;;;;5099559;28;20028;-72
2021/05/21 00:49:55;;;;;;;2.38;0.85;;;12.30;97.70;;;;;;5118299;28;20019;-72
2021/05/21 00:52:27;;;;;;;2.05;0.88;;;12.30;97.70;;;;;;5100139;28;20116;-72
2021/05/21 00:54:55;;;;;;;2.35;1.25;;;12.30;97.70;;;;;;5100624;28;20035;-72
2021/05/21 00:57:23;;;;;;;3.47;0.82;;;12.30;97.70;;;;;;5118966;28;20023;-71
2021/05/21 00:59:51;;;;;;;1.48;1.00;;;12.30;97.80;;;;;;5099721;28;20050;-71
2021/05/21 01:02:20;;;;;;;6.78;0.93;;;12.30;97.70;;;;;;5099619;28;20038;-72
2021/05/21 01:04:47;;;;;;;4.25;0.88;;;12.40;97.70;;;;;;5118211;28;20375;-72
2021/05/21 01:07:15;;;;;;;5.18;0.88;;;12.30;97.70;;;;;;5117382;28;20077;-72
2021/05/21 01:09:43;;;;;;;2.75;0.80;;;12.30;97.70;;;;;;5116497;28;20031;-72
2021/05/21 01:12:11;;;;;;;1.13;0.73;;;12.30;97.80;;;;;;5099124;28;20031;-72
2021/05/21 01:14:53;;;;;;;1.52;0.73;;;12.30;97.80;;;;;;5099211;28;20031;-72
2021/05/21 01:17:23;;;;;;;3.25;0.95;;;12.30;97.60;;;;;;5117158;28;20039;-72
2021/05/21 01:19:51;;;;;;;3.60;0.75;;;12.40;97.70;;;;;;5117858;28;20423;-72
2021/05/21 01:22:19;;;;;;;3.28;0.77;;;12.40;97.60;;;;;;5116415;28;20381;-72
2021/05/21 01:24:47;;;;;;;1.42;0.77;;;12.40;97.70;;;;;;5099041;28;20030;-72
2021/05/21 01:27:17;;;;;;;3.80;0.90;;;12.40;97.80;;;;;;5099837;28;20069;-72
2021/05/21 01:29:48;;;;;;;2.70;0.70;;;12.40;97.60;;;;;;5099224;28;20023;-72
2021/05/21 01:32:15;;;;;;;1.77;0.90;;;12.50;97.80;;;;;;5118474;28;20019;-72
2021/05/21 01:34:44;;;;;;;2.50;0.90;;;12.50;97.80;;;;;;5099808;28;20081;-72
2021/05/21 01:37:16;;;;;;;2.90;1.05;;;12.50;97.60;;;;;;5118441;28;20024;-72
2021/05/21 01:39:45;;;;;;;1.25;0.65;;;12.50;97.70;;;;;;5099910;28;20023;-72
2021/05/21 01:42:14;;;;;;;4.63;0.85;;;12.50;97.70;;;;;;5117867;28;20080;-72
2021/05/21 01:44:42;;;;;;;2.83;0.80;;;12.60;97.80;;;;;;5118344;28;20026;-72
2021/05/21 01:47:13;;;;;;;2.70;1.00;;;12.60;97.70;;;;;;5118096;28;20061;-72
2021/05/21 01:49:42;;;;;;;2.53;1.00;;;12.50;97.90;;;;;;5116882;28;20016;-72
2021/05/21 01:52:09;;;;;;;3.10;0.70;;;12.60;97.90;;;;;;5121181;28;20099;-72
2021/05/21 01:54:37;;;;;;;3.78;1.00;;;12.50;98.00;;;;;;5120784;28;20077;-72
2021/05/21 01:57:06;;;;;;;1.42;0.68;;;12.50;98.20;;;;;;5121010;28;20020;-72
2021/05/21 01:59:33;;;;;;;1.63;0.85;;;12.50;98.20;;;;;;5120953;28;20030;-72
2021/05/21 02:02:01;;;;;;;2.47;0.90;;;12.40;98.40;;;;;;5102779;28;20327;-72
2021/05/21 02:04:37;;;;;;;1.90;0.73;;;12.40;98.40;;;;;;5120686;28;20411;-72
2021/05/21 02:07:06;;;;;;;1.73;1.10;;;12.40;98.90;;;;;;5120437;28;20466;-72
2021/05/21 02:10:01;;;;;;;1.73;0.70;;;12.40;98.70;;;;;;5121331;28;20023;-72
2021/05/21 02:12:31;;;;;;;2.67;0.90;;;12.30;98.70;;;;;;5121104;28;20023;-72
2021/05/21 02:15:01;;;;;;;1.25;0.70;;;12.30;98.50;;;;;;5121730;28;20049;-72
2021/05/21 02:17:29;;;;;;;1.25;0.75;;;12.30;98.60;;;;;;5121556;28;20442;-72
2021/05/21 02:19:59;;;;;;;5.75;0.73;;;12.30;98.80;;;;;;5103285;28;20331;-72
2021/05/21 02:22:28;;;;;;;3.83;0.73;;;12.30;98.80;;;;;;5103196;28;20443;-72
2021/05/21 02:24:58;;;;;;;2.25;0.70;;;12.30;98.70;;;;;;5121694;28;20024;-72
2021/05/21 02:27:27;;;;;;;1.33;0.70;;;12.30;98.90;;;;;;5121336;28;20020;-72
2021/05/21 02:29:55;;;;;;;1.33;0.80;;;12.30;98.90;;;;;;5121334;28;20020;-72
2021/05/21 02:32:22;;;;;;;5.72;1.13;;;12.20;98.90;;;;;;5120658;28;20018;-72
2021/05/21 02:34:50;;;;;;;6.13;1.10;;;12.20;98.90;;;;;;5120635;28;20024;-72
2021/05/21 02:37:18;;;;;;;6.65;0.95;;;12.20;99.00;;;;;;5120126;28;20023;-72
2021/05/21 02:39:45;;;;;;;5.25;0.98;;;12.20;99.10;;;;;;5120498;28;20016;-72
2021/05/21 02:42:13;;;;;;;1.67;0.70;;;12.20;99.30;;;;;;5120670;28;20112;-72
2021/05/21 02:44:41;;;;;;;4.55;0.80;;;12.20;99.10;;;;;;5101910;28;20027;-72
2021/05/21 02:47:08;;;;;;;1.10;0.63;;;12.20;99.20;;;;;;5120195;28;20038;-72
2021/05/21 02:49:36;;;;;;;1.85;0.85;;;12.20;99.10;;;;;;5119923;28;20023;-72
2021/05/21 02:52:04;;;;;;;1.90;0.85;;;12.20;99.30;;;;;;5101823;28;20106;-72
2021/05/21 02:54:32;;;;;;;1.83;0.95;;;12.20;99.30;;;;;;5098715;28;20052;-72
2021/05/21 02:57:00;;;;;;;3.17;0.80;;;12.20;99.30;;;;;;5100354;28;20027;-72
2021/05/21 02:59:27;;;;;;;3.25;0.63;;;12.20;99.30;;;;;;5100326;28;20415;-72
2021/05/21 03:01:55;;;;;;;1.63;0.60;;;12.20;99.40;;;;;;5116244;28;20032;-72
2021/05/21 03:04:24;;;;;;;2.80;1.02;;;12.20;99.40;;;;;;5098957;28;20024;-72
2021/05/21 03:06:52;;;;;;;2.63;1.00;;;12.20;99.50;;;;;;5100422;28;20358;-72
2021/05/21 03:09:19;;;;;;;3.47;0.90;;;12.20;99.50;;;;;;5100639;28;20293;-71
2021/05/21 03:11:46;;;;;;;3.22;1.02;;;12.20;99.60;;;;;;5100597;28;20020;-72
2021/05/21 03:14:14;;;;;;;1.77;0.77;;;12.20;99.60;;;;;;5099706;28;20055;-72
2021/05/21 03:16:41;;;;;;;1.40;0.80;;;12.20;99.50;;;;;;5099100;28;20324;-72
2021/05/21 03:19:08;;;;;;;5.05;0.73;;;12.20;99.60;;;;;;5097382;28;20020;-72
2021/05/21 03:21:37;;;;;;;3.65;0.75;;;12.20;99.60;;;;;;5114740;28;20028;-72
2021/05/21 03:24:05;;;;;;;2.65;0.60;;;12.20;99.60;;;;;;5099400;28;20081;-72
2021/05/21 03:26:32;;;;;;;2.22;0.80;;;12.20;99.60;;;;;;5099081;28;20012;-72
2021/05/21 03:29:00;;;;;;;1.98;0.75;;;12.20;99.70;;;;;;5098847;28;20028;-72
2021/05/21 03:31:28;;;;;;;2.88;0.95;;;12.20;99.80;;;;;;5098756;28;20028;-72
2021/05/21 03:33:57;;;;;;;3.40;1.02;;;12.20;99.80;;;;;;5097625;28;20024;-74
2021/05/21 03:36:26;;;;;;;0.88;0.65;;;12.20;99.80;;;;;;5099569;28;20034;-72
2021/05/21 03:38:54;;;;;;;4.30;0.98;;;12.20;99.90;;;;;;5099612;28;20023;-72
2021/05/21 03:41:21;;;;;;;1.98;0.90;;;12.20;99.90;;;;;;5100016;28;20056;-72
2021/05/21 03:43:50;;;;;;;1.20;0.75;;;12.10;99.90;;;;;;5099353;28;20030;-72
2021/05/21 03:46:18;;;;;;;1.27;0.75;;;12.10;99.90;;;;;;5099136;28;20058;-72
2021/05/21 03:48:46;;;;;;;2.00;1.00;;;12.10;99.90;;;;;;5098330;28;20031;-72
2021/05/21 03:51:14;;;;;;;1.02;0.80;;;12.10;99.90;;;;;;5099269;28;20357;-72
2021/05/21 03:53:41;;;;;;;6.63;0.70;;;12.10;99.90;;;;;;5110470;28;20039;-71
2021/05/21 03:56:09;;;;;;;7.30;1.30;;;12.00;99.90;;;;;;5100583;28;20323;-72
2021/05/21 03:58:36;;;;;;;2.88;0.80;;;12.10;99.90;;;;;;5119196;28;20028;-72
2021/05/21 04:01:03;;;;;;;1.92;0.90;;;12.00;99.90;;;;;;5099637;28;20072;-72
2021/05/21 04:03:31;;;;;;;3.63;1.02;;;12.00;99.90;;;;;;5100330;28;20059;-73
2021/05/21 04:05:59;;;;;;;2.30;0.80;;;12.10;99.90;;;;;;5118397;28;20068;-72
2021/05/21 04:08:29;;;;;;;2.38;0.98;;;12.10;99.90;;;;;;5101187;28;20024;-72
2021/05/21 04:10:58;;;;;;;0.95;0.63;;;12.10;99.90;;;;;;5118738;28;20016;-72
2021/05/21 04:13:26;;;;;;;3.10;0.60;;;12.10;99.90;;;;;;5118235;28;20026;-72
2021/05/21 04:15:54;;;;;;;11.23;1.23;;;12.10;99.90;;;;;;5118401;28;20016;-72
2021/05/21 04:18:22;;;;;;;2.03;0.85;;;12.10;99.90;;;;;;5101158;28;20486;-72
2021/05/21 04:20:50;;;;;;;5.53;0.95;;;12.10;99.90;;;;;;5119532;28;20023;-72
2021/05/21 04:23:18;;;;;;;2.92;1.00;;;12.10;99.90;;;;;;5119035;28;20020;-72
2021/05/21 04:25:46;;;;;;;3.17;0.90;;;12.10;99.90;;;;;;5119125;28;20094;-72
2021/05/21 04:28:15;;;;;;;3.67;0.90;;;12.00;99.90;;;;;;5118095;28;20328;-72
2021/05/21 04:30:43;;;;;;;1.70;0.70;;;12.00;99.90;;;;;;5119074;28;20312;-72
2021/05/21 04:33:10;;;;;;;6.65;1.33;;;11.90;99.90;;;;;;5119445;28;20028;-72
2021/05/21 04:35:39;;;;;;;2.72;0.95;;;11.90;99.90;;;;;;5118811;28;20431;-72
2021/05/21 04:38:07;;;;;;;3.45;0.90;;;11.80;99.90;;;;;;5118423;28;20032;-72
2021/05/21 04:40:35;;;;;;;3.42;0.80;;;11.80;99.90;;;;;;5117750;28;20020;-72
2021/05/21 04:43:08;;;;;;;2.28;1.00;;;11.90;99.90;;;;;;5099680;28;20028;-72
2021/05/21 04:45:36;;;;;;;1.50;0.75;;;11.80;99.90;;;;;;5118116;28;20024;-72
2021/05/21 04:48:04;;;;;;;2.47;0.95;;;11.80;99.90;;;;;;5118184;28;20020;-72
2021/05/21 04:50:32;;;;;;;1.13;0.70;;;11.90;99.90;;;;;;5099701;28;20020;-72
2021/05/21 04:53:00;;;;;;;2.53;1.17;;;11.90;99.90;;;;;;5117364;28;20047;-73
2021/05/21 04:55:28;;;;;;;2.60;0.88;;;11.90;99.90;;;;;;5117752;28;20034;-72
2021/05/21 04:57:56;;;;;;;1.88;1.10;;;11.90;99.90;;;;;;5117743;28;20087;-73
2021/05/21 05:00:24;;;;;;;3.85;1.10;;;11.90;99.90;;;;;;5118419;28;20024;-72
2021/05/21 05:02:52;;;;;;;3.00;1.00;;;11.90;99.90;;;;;;5118389;28;20423;-72
2021/05/21 05:05:20;;;;;;;1.30;0.90;;;11.90;99.90;;;;;;5118620;28;20079;-73
2021/05/21 05:07:48;;;;;;;3.15;1.08;;;11.90;99.90;;;;;;5119067;28;20026;-75
2021/05/21 05:10:16;;;;;;;2.65;1.00;;;11.90;99.90;;;;;;5118748;28;20390;-71
2021/05/21 05:12:44;;;;;;;5.05;0.80;;;11.90;99.90;;;;;;5118792;28;20091;-70
2021/05/21 05:15:12;;;;;;;3.55;1.05;;;12.00;99.90;;;;;;5118040;28;20020;-77
2021/05/21 05:17:39;;;;;;;5.82;0.98;;;12.00;99.90;;;;;;5099876;28;20395;-71
2021/05/21 05:20:08;;;;;;;1.10;0.75;;;12.00;99.90;;;;;;5117100;28;20323;-71
2021/05/21 05:22:36;;;;;;;2.33;0.95;;;12.00;99.90;;;;;;5099073;28;20035;-71
2021/05/21 05:25:04;;;;;;;2.05;1.05;;;12.00;99.90;;;;;;5116575;28;20030;-71
2021/05/21 05:27:32;;;;;;;1.65;0.70;;;12.00;99.90;;;;;;5117234;28;20319;-71
2021/05/21 05:30:00;;;;;;;2.25;0.90;;;12.10;99.90;;;;;;5118138;28;20360;-71
2021/05/21 05:32:29;;;;;;;3.95;0.90;;;12.00;99.90;;;;;;5117604;28;20024;-71
2021/05/21 05:34:56;;;;;;;2.70;1.00;;;12.10;99.90;;;;;;5116948;28;20093;-71
2021/05/21 05:37:25;;;;;;;2.45;0.95;;;12.10;99.90;;;;;;5117701;28;20020;-72
2021/05/21 05:39:53;;;;;;;1.92;0.88;;;12.20;99.90;;;;;;5117290;28;20035;-72
2021/05/21 05:42:21;;;;;;;3.17;1.02;;;12.20;99.90;;;;;;5117771;28;20102;-72
2021/05/21 05:44:49;;;;;;;3.55;0.82;;;12.30;99.90;;;;;;5117762;28;20408;-71
2021/05/21 05:47:17;;;;;;;1.75;1.00;;;12.30;99.90;;;;;;5118468;28;20152;-71
2021/05/21 05:49:46;;;;;;;1.80;0.80;;;12.40;99.90;;;;;;5118269;28;20031;-70
2021/05/21 05:52:13;;;;;;;4.90;1.00;;;12.50;99.90;;;;;;5117793;28;20370;-71
2021/05/21 05:54:40;;;;;;;1.38;0.70;;;12.70;99.90;;;;;;5117544;28;20047;-71
2021/05/21 05:57:08;;;;;;;5.53;0.90;;;12.80;99.90;;;;;;5099864;28;20023;-70
2021/05/21 05:59:38;;;;;;;1.15;0.57;;;13.00;99.90;;;;;;5099192;28;20023;-71
2021/05/21 06:02:06;;;;;;;4.78;1.77;;;13.10;99.60;;;;;;5117358;28;20027;-71
2021/05/21 06:04:34;;;;;;;0.98;0.70;;;13.20;99.80;;;;;;5116903;28;20110;-72
2021/05/21 06:07:03;;;;;;;1.38;0.80;;;13.30;99.50;;;;;;5098938;28;20346;-72
2021/05/21 06:09:31;;;;;;;1.80;0.77;;;13.40;99.00;;;;;;5116702;28;20031;-71
2021/05/21 06:11:59;;;;;;;2.05;0.75;;;13.50;98.80;;;;;;5117287;28;20020;-70
2021/05/21 06:14:27;;;;;;;1.85;0.70;;;13.60;98.60;;;;;;5116616;28;20020;-70
2021/05/21 06:16:54;;;;;;;5.28;1.25;;;13.60;98.70;;;;;;5098549;28;20111;-71
2021/05/21 06:19:22;;;;;;;1.90;0.88;;;13.70;98.70;;;;;;5114588;28;20115;-70
2021/05/21 06:21:50;;;;;;;1.92;0.70;;;13.80;98.40;;;;;;5117169;28;20031;-70
2021/05/21 06:24:19;;;;;;;5.93;0.95;;;13.80;98.20;;;;;;5117278;28;20020;-77
2021/05/21 06:29:34;;;;;;;1.17;0.60;;;14.00;98.20;;;;;;5117659;28;20107;-70
2021/05/21 06:32:01;;;;;;;3.25;0.80;;;14.00;98.10;;;;;;5117887;28;20316;-71
2021/05/21 06:34:29;;;;;;;2.67;1.10;;;14.00;97.80;;;;;;5117855;28;20405;-71
2021/05/21 06:36:56;;;;;;;2.20;0.52;;;14.00;97.90;;;;;;5120710;28;20043;-71
2021/05/21 06:39:23;;;;;;;3.22;0.98;;;13.90;97.90;;;;;;5121124;28;20053;-71
2021/05/21 06:41:51;;;;;;;2.72;0.63;;;13.90;98.10;;;;;;5120196;28;20036;-71
2021/05/21 06:44:19;;;;;;;2.25;1.08;;;13.80;98.50;;;;;;5120564;28;20020;-71
2021/05/21 06:46:47;;;;;;;1.75;0.70;;;13.80;98.60;;;;;;5101946;28;20484;-71
2021/05/21 06:49:14;;;;;;;2.47;0.98;;;13.80;98.50;;;;;;5120095;28;20020;-71
2021/05/21 06:51:42;;;;;;;2.08;0.80;;;13.80;98.70;;;;;;5102024;28;20027;-71
2021/05/21 06:54:13;;;;;;;1.55;0.70;;;13.80;99.00;;;;;;5119247;28;20047;-71
2021/05/21 06:56:42;;;;;;;1.13;0.60;;;13.90;99.00;;;;;;5120129;28;20153;-70
2021/05/21 06:59:10;;;;;;;2.00;0.68;;;14.00;98.60;;;;;;5101714;28;20020;-70
2021/05/21 07:01:37;;;;;;;2.05;0.70;;;14.20;98.60;;;;;;5119731;28;20327;-70
2021/05/21 07:04:05;;;;;;;2.92;0.85;;;14.40;98.10;;;;;;5102723;28;20430;-70
2021/05/21 07:06:33;;;;;;;5.22;0.85;;;14.70;97.20;;;;;;5121115;28;20037;-69
2021/05/21 07:09:01;;;;;;;2.88;0.77;;;14.90;97.00;;;;;;5121057;28;20026;-69
2021/05/21 07:11:29;;;;;;;2.85;0.63;;;15.10;96.70;;;;;;5120704;28;20023;-70
2021/05/21 07:13:59;;;;;;;2.85;0.60;;;15.30;95.90;;;;;;5120944;28;20414;-69
2021/05/21 07:16:27;;;;;;;3.42;0.82;;;15.50;96.60;;;;;;5120481;28;20027;-70
2021/05/21 07:18:55;;;;;;;2.72;0.75;;;15.60;95.10;;;;;;5102265;28;20028;-70
2021/05/21 07:21:24;;;;;;;5.00;0.93;;;15.70;94.50;;;;;;5101788;28;20036;-70
2021/05/21 07:23:52;;;;;;;3.92;0.80;;;15.80;94.40;;;;;;5119279;28;20016;-70
2021/05/21 07:26:21;;;;;;;3.10;0.77;;;15.90;94.00;;;;;;5119629;28;20030;-70
2021/05/21 07:28:48;;;;;;;4.60;0.65;;;15.90;92.70;;;;;;5119293;28;20015;-70
2021/05/21 07:31:17;;;;;;;6.45;1.00;;;16.00;93.10;;;;;;5119331;28;20027;-70
2021/05/21 07:33:45;;;;;;;6.43;0.73;;;16.10;94.00;;;;;;5119424;28;20055;-69
2021/05/21 07:36:13;;;;;;;4.60;1.00;;;16.10;93.00;;;;;;5119004;28;20019;-70
2021/05/21 07:38:41;;;;;;;5.80;0.75;;;16.10;92.60;;;;;;5119674;28;20038;-70
2021/05/21 07:41:09;;;;;;;3.65;0.80;;;16.00;92.50;;;;;;5119001;28;20327;-72
2021/05/21 07:43:38;;;;;;;3.53;0.70;;;16.00;92.60;;;;;;5119624;28;20161;-71
2021/05/21 07:46:06;;;;;;;4.68;0.73;;;15.90;92.40;;;;;;5120425;28;20015;-70
2021/05/21 07:48:33;;;;;;;3.83;0.70;;;15.90;92.60;;;;;;5100765;28;20094;-71
2021/05/21 07:51:02;;;;;;;3.63;0.65;;;15.90;92.30;;;;;;5119728;28;20022;-71
2021/05/21 07:53:32;;;;;;;4.20;0.75;;;16.00;92.30;;;;;;5119507;28;20498;-71
2021/05/21 07:56:00;;;;;;;4.35;1.67;;;16.20;92.90;;;;;;5119629;28;20031;-71
2021/05/21 07:58:28;;;;;;;2.85;0.95;;;16.20;90.80;;;;;;5120112;28;20467;-70
2021/05/21 08:00:55;;;;;;;3.78;1.00;;;16.20;91.20;;;;;;5119800;28;20035;-71
2021/05/21 08:03:23;;;;;;;5.38;0.85;;;16.30;90.40;;;;;;5118385;28;20047;-71
2021/05/21 08:05:52;;;;;;;2.47;0.80;;;16.30;90.10;;;;;;5100462;28;20024;-71
2021/05/21 08:08:23;;;;;;;4.82;1.08;;;16.30;89.30;;;;;;5100453;28;20405;-73
2021/05/21 08:10:55;;;;;;;3.72;0.93;;;16.10;89.50;;;;;;5118835;28;20099;-71
2021/05/21 08:13:24;;;;;;;2.65;1.10;;;16.00;88.40;;;;;;5118344;28;20020;-71
2021/05/21 08:15:52;;;;;;;5.07;1.05;;;15.90;90.20;;;;;;5118714;28;20016;-71
2021/05/21 08:18:20;;;;;;;3.75;0.60;;;15.90;88.60;;;;;;5118905;28;20023;-71
2021/05/21 08:20:49;;;;;;;3.50;0.93;;;16.00;90.40;;;;;;5118153;28;20456;-72
2021/05/21 08:23:18;;;;;;;5.18;0.82;;;16.10;89.10;;;;;;5118749;28;20020;-72
2021/05/21 08:25:46;;;;;;;6.22;0.80;;;16.20;90.60;;;;;;5100858;28;20484;-70
2021/05/21 08:28:15;;;;;;;4.50;1.45;;;16.40;89.30;;;;;;5119729;28;20027;-71
2021/05/21 08:30:42;;;;;;;3.65;0.70;;;16.40;87.80;;;;;;5119482;28;20023;-72
2021/05/21 08:33:12;;;;;;;5.25;2.53;;;16.40;89.70;;;;;;5100836;28;20152;-72
2021/05/21 08:35:40;;;;;;;4.75;0.73;;;16.50;89.60;;;;;;5118754;28;20016;-71
2021/05/21 08:38:08;;;;;;;3.28;0.40;;;16.50;90.60;;;;;;5118975;28;20106;-72
2021/05/21 08:40:36;;;;;;;3.35;0.93;;;16.50;89.90;;;;;;5118773;28;20026;-71
2021/05/21 08:43:09;;;;;;;2.50;1.08;;;16.60;87.10;;;;;;5118870;28;20348;-71
2021/05/21 08:45:37;;;;;;;2.28;0.82;;;16.70;88.50;;;;;;5099602;28;20023;-71
2021/05/21 08:48:13;;;;;;;4.38;0.98;;;16.80;87.20;;;;;;5099282;28;20043;-71
2021/05/21 08:50:44;;;;;;;4.55;0.70;;;16.90;84.20;;;;;;5099633;28;20076;-71
2021/05/21 08:53:13;;;;;;;4.90;0.60;;;17.00;87.20;;;;;;5117412;28;20388;-72
2021/05/21 08:55:41;;;;;;;3.60;1.30;;;17.10;85.10;;;;;;5118226;28;20031;-71
2021/05/21 08:58:13;;;;;;;6.10;1.00;;;17.10;81.20;;;;;;5117905;28;20046;-71
2021/05/21 09:00:44;;;;;;;5.90;2.58;;;17.00;80.70;;;;;;5117903;28;20020;-70
2021/05/21 09:03:23;;;;;;;9.57;1.45;;;17.00;82.40;;;;;;5117543;28;20019;-70
2021/05/21 09:06:21;;;;;;;6.60;0.93;;;17.10;81.50;;;;;;5117727;28;20441;-70
2021/05/21 09:08:57;;;;;;;3.20;1.00;;;17.30;81.70;;;;;;5118305;28;20023;-73
2021/05/21 09:11:34;;;;;;;2.75;0.85;;;17.60;79.60;;;;;;5100085;28;20076;-73
2021/05/21 09:14:07;;;;;;;4.60;1.23;;;17.90;79.00;;;;;;5118132;28;20030;-71
2021/05/21 09:16:37;;;;;;;4.75;1.40;;;18.00;76.90;;;;;;5100244;28;20315;-72
2021/05/21 09:19:08;;;;;;;3.97;1.08;;;17.90;77.70;;;;;;5118218;28;20024;-74
2021/05/21 09:21:55;;;;;;;3.25;0.75;;;17.70;78.90;;;;;;5118188;28;20020;-73
2021/05/21 09:24:48;;;;;;;5.15;1.75;;;17.40;78.30;;;;;;5118237;28;20407;-73
2021/05/21 09:27:18;;;;;;;1.80;0.60;;;17.20;78.00;;;;;;5117647;28;20430;-70
2021/05/21 09:29:47;;;;;;;4.75;0.70;;;17.20;79.10;;;;;;5117097;28;20023;-71
2021/05/21 09:32:24;;;;;;;2.05;0.65;;;17.10;78.90;;;;;;5116958;28;20408;-71
2021/05/21 09:35:06;;;;;;;3.42;0.60;;;17.10;77.90;;;;;;5117417;28;20031;-71
2021/05/21 09:37:35;;;;;;;2.88;0.45;;;17.10;77.10;;;;;;5117698;28;20023;-71
2021/05/21 09:40:13;;;;;;;1.73;0.50;;;17.00;80.00;;;;;;5098911;28;20028;-71
2021/05/21 09:43:02;;;;;;;4.20;0.60;;;17.20;78.30;;;;;;5117031;28;20098;-71
2021/05/21 09:45:45;;;;;;;3.22;0.80;;;17.20;79.00;;;;;;5116912;28;20043;-71
2021/05/21 09:48:18;;;;;;;5.10;0.90;;;17.20;78.80;;;;;;5117820;28;20055;-71
2021/05/21 09:50:49;;;;;;;4.90;0.70;;;17.30;80.50;;;;;;5117807;28;20023;-70
2021/05/21 09:53:22;;;;;;;7.47;0.60;;;17.50;78.30;;;;;;5117623;28;20040;-71
2021/05/21 09:55:59;;;;;;;5.32;0.82;;;17.70;79.60;;;;;;5117989;28;20410;-71
2021/05/21 09:58:40;;;;;;;2.80;0.85;;;17.90;79.10;;;;;;5117664;28;20022;-72
2021/05/21 10:01:08;;;;;;;2.13;0.77;;;18.20;77.30;;;;;;5118078;28;20106;-72
2021/05/21 10:03:41;;;;;;;2.88;0.75;;;18.20;75.20;;;;;;5118171;28;20011;-72
2021/05/21 10:06:09;;;;;;;2.80;0.73;;;18.20;77.10;;;;;;5099383;28;20319;-71
2021/05/21 10:08:40;;;;;;;2.78;1.02;;;18.20;74.90;;;;;;5117327;28;20436;-71
2021/05/21 10:11:08;;;;;;;5.05;0.93;;;18.00;74.10;;;;;;5119586;28;20319;-71
2021/05/21 10:13:37;;;;;;;4.95;0.70;;;17.80;75.40;;;;;;5102793;28;20023;-70
2021/05/21 10:16:08;;;;;;;4.70;0.85;;;17.70;74.80;;;;;;5120525;28;20077;-70
2021/05/21 10:18:36;;;;;;;4.10;1.67;;;17.70;75.40;;;;;;5120589;28;20038;-70
2021/05/21 10:21:05;;;;;;;13.93;6.95;;;17.70;73.60;;;;;;5120659;28;20023;-71
2021/05/21 10:23:44;;;;;;;58.70;32.53;;;17.80;74.30;;;;;;5120899;28;20094;-71
2021/05/21 10:26:20;;;;;;;6.65;3.00;;;17.80;75.40;;;;;;5121121;28;20047;-72
2021/05/21 10:28:52;;;;;;;13.20;1.90;;;17.90;74.60;;;;;;5121390;28;20016;-71
2021/05/21 10:31:20;;;;;;;4.18;0.93;;;17.80;71.40;;;;;;5121467;28;20031;-71
2021/05/21 10:33:49;;;;;;;4.32;1.00;;;17.60;72.30;;;;;;5122341;28;20295;-71
2021/05/21 10:36:17;;;;;;;5.68;0.90;;;17.40;73.20;;;;;;5121223;28;20123;-71
2021/05/21 10:39:07;;;;;;;2.60;0.60;;;17.40;74.40;;;;;;5121122;28;20034;-72
2021/05/21 10:41:38;;;;;;;4.18;1.00;;;17.40;72.60;;;;;;5121578;28;20475;-72
2021/05/21 10:44:20;;;;;;;3.60;0.93;;;17.50;73.00;;;;;;5120988;28;20031;-72
2021/05/21 10:47:13;;;;;;;5.60;0.90;;;17.50;73.10;;;;;;5120213;28;20045;-72
2021/05/21 10:49:41;;;;;;;2.70;0.77;;;17.60;71.60;;;;;;5120435;28;20016;-71
2021/05/21 10:52:08;;;;;;;2.08;0.60;;;17.60;69.60;;;;;;5101757;28;20479;-71
2021/05/21 10:54:58;;;;;;;5.15;1.25;;;17.50;71.20;;;;;;5119828;28;20056;-74
2021/05/21 10:57:32;;;;;;;3.60;0.70;;;17.60;71.20;;;;;;5101388;28;20035;-72
2021/05/21 11:00:01;;;;;;;4.93;1.50;;;17.50;70.80;;;;;;5102487;28;20027;-73
2021/05/21 11:02:53;;;;;;;1.42;0.70;;;17.40;69.70;;;;;;5120321;28;20073;-72
2021/05/21 11:05:24;;;;;;;4.88;0.82;;;17.30;70.40;;;;;;5119902;28;20051;-71
2021/05/21 11:08:03;;;;;;;4.13;0.80;;;17.40;70.40;;;;;;5120802;28;20062;-71
2021/05/21 11:10:34;;;;;;;4.60;1.10;;;17.70;70.20;;;;;;5120811;28;20019;-70
2021/05/21 11:13:05;;;;;;;4.05;0.80;;;17.90;70.00;;;;;;5121039;28;20038;-70
2021/05/21 11:15:40;;;;;;;4.20;1.23;;;18.10;65.90;;;;;;5120885;28;20308;-69
2021/05/21 11:18:21;;;;;;;5.40;1.17;;;18.10;66.60;;;;;;5120521;28;20028;-69
2021/05/21 11:21:09;;;;;;;2.42;1.08;;;18.10;68.70;;;;;;5120174;28;20144;-69
2021/05/21 11:23:41;;;;;;;6.72;2.03;;;18.20;69.40;;;;;;5120343;28;20030;-68
2021/05/21 11:26:19;;;;;;;6.20;0.70;;;18.30;69.30;;;;;;5120729;28;20016;-69
2021/05/21 11:29:00;;;;;;;6.45;1.23;;;18.30;69.00;;;;;;5119856;28;20046;-70
2021/05/21 11:31:30;;;;;;;4.93;0.73;;;18.10;67.70;;;;;;5119212;28;20044;-69
2021/05/21 11:34:00;;;;;;;4.35;1.20;;;17.90;69.30;;;;;;5101098;28;20327;-70
2021/05/21 11:36:30;;;;;;;6.22;0.90;;;17.70;68.80;;;;;;5118952;28;20035;-70
2021/05/21 11:38:59;;;;;;;3.75;0.80;;;17.60;67.30;;;;;;5118975;28;20039;-69
2021/05/21 11:41:44;;;;;;;4.30;0.85;;;17.50;67.50;;;;;;5119656;28;20103;-70
2021/05/21 11:44:13;;;;;;;4.32;1.00;;;17.60;69.40;;;;;;5119174;28;20019;-69
2021/05/21 11:46:45;;;;;;;7.30;1.25;;;17.70;65.70;;;;;;5119525;28;20074;-69
2021/05/21 11:49:20;;;;;;;7.22;1.75;;;17.70;63.40;;;;;;5119852;28;20019;-70
2021/05/21 11:51:59;;;;;;;5.72;1.25;;;17.50;65.10;;;;;;5119769;28;20105;-70
2021/05/21 11:54:28;;;;;;;6.95;1.25;;;17.50;66.00;;;;;;5119712;28;20051;-69
2021/05/21 11:56:57;;;;;;;7.20;1.48;;;17.40;66.60;;;;;;5119924;28;20434;-69
2021/05/21 11:59:26;;;;;;;9.63;1.52;;;17.30;66.30;;;;;;5119639;28;20027;-69
2021/05/21 12:01:56;;;;;;;9.85;2.40;;;17.20;66.80;;;;;;5120153;28;20023;-69
2021/05/21 12:04:36;;;;;;;11.40;1.92;;;17.00;67.90;;;;;;5119612;28;20020;-69
2021/05/21 12:07:04;;;;;;;7.55;1.38;;;17.10;66.60;;;;;;5119699;28;20019;-70
2021/05/21 12:09:35;;;;;;;14.25;2.13;;;17.30;62.50;;;;;;5118553;28;20070;-70
2021/05/21 12:12:03;;;;;;;9.35;1.60;;;17.60;64.70;;;;;;5118761;28;20020;-70
2021/05/21 12:14:32;;;;;;;6.78;1.20;;;17.90;63.60;;;;;;5118603;28;20035;-70
2021/05/21 12:17:03;;;;;;;8.90;0.90;;;18.00;61.30;;;;;;5118892;28;20407;-70
2021/05/21 12:19:31;;;;;;;7.25;2.60;;;18.10;62.50;;;;;;5118339;28;20063;-70
2021/05/21 12:21:58;;;;;;;9.38;2.22;;;18.20;63.90;;;;;;5118303;28;20024;-69
2021/05/21 12:24:28;;;;;;;13.05;2.45;;;18.40;59.50;;;;;;5118908;28;20020;-70
2021/05/21 12:26:55;;;;;;;4.85;1.08;;;18.60;62.00;;;;;;5118738;28;20015;-69
2021/05/21 12:29:27;;;;;;;9.63;2.08;;;18.70;58.50;;;;;;5119016;28;20023;-69
2021/05/21 12:31:59;;;;;;;7.88;1.52;;;18.80;60.20;;;;;;5119211;28;20495;-70
2021/05/21 12:34:28;;;;;;;9.93;2.05;;;18.70;59.00;;;;;;5100431;28;20023;-69
2021/05/21 12:37:09;;;;;;;7.15;1.10;;;18.60;56.30;;;;;;5119388;28;20046;-69
2021/05/21 12:39:43;;;;;;;11.27;1.75;;;18.80;54.10;;;;;;5117682;28;20398;-69
2021/05/21 12:42:16;;;;;;;8.70;1.20;;;19.20;55.50;;;;;;5118794;28;20462;-69
2021/05/21 12:44:51;;;;;;;10.50;1.73;;;19.80;53.00;;;;;;5118610;28;20110;-69
2021/05/21 12:47:21;;;;;;;7.75;2.90;;;20.40;50.80;;;;;;5118733;28;20415;-70
2021/05/21 12:49:50;;;;;;;12.68;2.10;;;21.00;49.30;;;;;;5117358;28;20387;-70
2021/05/21 12:52:18;;;;;;;7.47;2.10;;;21.10;47.00;;;;;;5117393;28;20414;-71
2021/05/21 12:54:47;;;;;;;8.77;1.65;;;21.10;48.50;;;;;;5116610;28;20417;-71
2021/05/21 12:57:19;;;;;;;3.35;1.95;;;21.20;48.40;;;;;;5117845;28;20034;-71
2021/05/21 12:59:59;;;;;;;7.35;1.95;;;21.10;47.00;;;;;;5117597;28;20412;-71
2021/05/21 13:02:28;;;;;;;9.48;2.00;;;21.00;47.70;;;;;;5117831;28;20102;-72